Time;durP1;ratioP1;P1;durP2;ratioP2;P2;SDS_P1;SDS_P2;PMS_P1;PMS_P2;Temp;Humidity;BMP_temperature;BMP_pressure;BME280_temperature;BME280_humidity;BME280_pressure;Samples;Min_cycle;Max_cycle;Signal;HPM_P1;HPM_P2
2022/12/24 00:01:01;;;;;;;20.35;17.32;;;;;;;1.48;81.16;99810.72;1731369;81;21009;-67
2022/12/24 00:03:29;;;;;;;21.42;18.95;;;;;;;1.47;81.16;99804.67;1724250;81;21035;-67
2022/12/24 00:05:57;;;;;;;20.85;17.62;;;;;;;1.46;81.14;99800.39;1734387;80;20957;-67
2022/12/24 00:08:25;;;;;;;19.17;17.15;;;;;;;1.43;81.18;99805.27;1734731;81;21020;-67
2022/12/24 00:10:52;;;;;;;20.57;17.75;;;;;;;1.44;81.20;99808.71;1740508;82;20984;-67
2022/12/24 00:13:20;;;;;;;23.07;18.87;;;;;;;1.44;81.22;99811.31;1719294;80;21063;-67
2022/12/24 00:15:47;;;;;;;19.80;17.57;;;;;;;1.46;81.24;99806.06;1718363;82;21926;-67
2022/12/24 00:18:18;;;;;;;20.48;18.23;;;;;;;1.48;81.31;99812.02;1749603;79;20949;-67
2022/12/24 00:20:48;;;;;;;20.30;18.10;;;;;;;1.48;81.40;99811.55;1756580;80;20972;-67
2022/12/24 00:23:17;;;;;;;20.68;18.45;;;;;;;1.50;81.43;99807.11;1745796;80;20999;-66
2022/12/24 00:25:45;;;;;;;21.10;18.48;;;;;;;1.50;81.50;99799.30;1754755;80;21538;-67
2022/12/24 00:28:12;;;;;;;22.13;17.70;;;;;;;1.53;81.58;99794.39;1753780;80;21828;-65
2022/12/24 00:30:41;;;;;;;21.10;18.17;;;;;;;1.54;81.65;99790.41;1741244;80;21024;-66
2022/12/24 00:33:08;;;;;;;21.95;18.10;;;;;;;1.54;81.69;99786.50;1754862;80;20983;-66
2022/12/24 00:35:37;;;;;;;23.83;19.67;;;;;;;1.57;81.76;99799.38;1746172;80;21008;-67
2022/12/24 00:38:07;;;;;;;20.75;17.55;;;;;;;1.58;81.82;99801.52;1762746;80;21381;-67
2022/12/24 00:40:33;;;;;;;19.92;17.52;;;;;;;1.61;81.85;99790.48;1756365;80;21869;-67
2022/12/24 00:43:00;;;;;;;23.40;18.95;;;;;;;1.62;81.86;99789.55;1764242;80;21454;-67
2022/12/24 00:45:27;;;;;;;21.73;18.55;;;;;;;1.63;81.87;99789.92;1754063;80;21101;-67
2022/12/24 00:47:53;;;;;;;23.55;18.60;;;;;;;1.65;81.85;99788.57;1732351;80;20959;-66
2022/12/24 00:50:20;;;;;;;20.32;18.02;;;;;;;1.65;81.86;99785.97;1747166;80;21062;-67
2022/12/24 00:52:47;;;;;;;21.57;19.02;;;;;;;1.67;81.85;99789.33;1746556;80;21817;-67
2022/12/24 00:55:16;;;;;;;21.50;18.87;;;;;;;1.68;81.87;99786.64;1740805;80;20945;-67
2022/12/24 00:57:43;;;;;;;21.90;18.60;;;;;;;1.69;81.85;99774.46;1752315;80;21070;-68
2022/12/24 01:00:10;;;;;;;20.23;18.00;;;;;;;1.70;81.88;99777.44;1742650;80;21056;-67
2022/12/24 01:02:37;;;;;;;21.02;17.95;;;;;;;1.71;81.92;99770.84;1748730;80;21073;-67
2022/12/24 01:05:09;;;;;;;21.35;17.98;;;;;;;1.72;81.92;99770.39;1737388;80;21936;-68
2022/12/24 01:07:40;;;;;;;21.62;17.60;;;;;;;1.74;81.94;99759.45;1754989;80;21523;-68
2022/12/24 01:10:09;;;;;;;20.90;17.98;;;;;;;1.75;81.91;99751.19;1751825;80;21018;-68
2022/12/24 01:12:36;;;;;;;22.80;19.50;;;;;;;1.73;81.91;99742.13;1739459;80;21145;-68
2022/12/24 01:15:04;;;;;;;22.58;18.75;;;;;;;1.74;81.90;99749.05;1748101;80;21064;-66
2022/12/24 01:17:32;;;;;;;20.00;17.32;;;;;;;1.75;81.89;99749.88;1734668;80;21940;-67
2022/12/24 01:19:59;;;;;;;19.60;16.67;;;;;;;1.76;81.90;99759.38;1743953;80;21098;-67
2022/12/24 01:22:26;;;;;;;19.30;16.23;;;;;;;1.76;81.83;99760.21;1754817;80;21131;-67
2022/12/24 01:24:52;;;;;;;19.52;16.67;;;;;;;1.74;81.77;99759.45;1754889;80;21012;-68
2022/12/24 01:27:20;;;;;;;20.57;17.67;;;;;;;1.73;81.73;99766.86;1755294;80;21049;-68
2022/12/24 01:29:46;;;;;;;20.85;17.92;;;;;;;1.70;81.67;99767.88;1750718;80;21931;-68
2022/12/24 01:32:13;;;;;;;22.32;18.60;;;;;;;1.68;81.62;99766.28;1726416;80;20970;-67
2022/12/24 01:34:40;;;;;;;21.85;19.25;;;;;;;1.65;81.56;99766.45;1743886;80;21024;-67
2022/12/24 01:37:06;;;;;;;20.40;17.25;;;;;;;1.63;81.49;99770.87;1738082;80;21032;-67
2022/12/24 01:39:34;;;;;;;21.05;17.95;;;;;;;1.61;81.45;99774.86;1751103;80;21114;-67
2022/12/24 01:44:48;;;;;;;20.82;18.30;;;;;;;1.55;81.32;99766.09;1734261;80;21058;-67
2022/12/24 01:47:27;;;;;;;20.57;17.45;;;;;;;1.52;81.27;99762.32;1706789;81;21439;-66
2022/12/24 01:49:58;;;;;;;22.20;18.23;;;;;;;1.49;81.31;99757.28;1753140;80;21008;-66
2022/12/24 01:52:32;;;;;;;22.45;19.02;;;;;;;1.48;81.33;99759.51;1742083;80;21126;-66
2022/12/24 01:55:09;;;;;;;21.93;19.52;;;;;;;1.48;81.40;99755.61;1739458;80;21955;-66
2022/12/24 01:57:41;;;;;;;24.35;19.27;;;;;;;1.47;81.44;99755.23;1746186;80;21006;-67
2022/12/24 02:00:11;;;;;;;21.25;18.20;;;;;;;1.49;81.44;99758.59;1727566;82;20973;-68
2022/12/24 02:02:39;;;;;;;18.85;15.88;;;;;;;1.50;81.50;99752.45;1767692;80;21054;-67
2022/12/24 02:05:17;;;;;;;21.37;18.35;;;;;;;1.53;81.59;99751.45;1757304;80;21006;-68
2022/12/24 02:07:44;;;;;;;20.10;17.85;;;;;;;1.54;81.60;99739.65;1725156;80;22506;-68
2022/12/24 02:10:15;;;;;;;21.23;18.92;;;;;;;1.57;81.66;99745.18;1753235;79;20987;-67
2022/12/24 02:12:42;;;;;;;21.20;17.82;;;;;;;1.59;81.69;99744.17;1754214;80;21690;-67
2022/12/24 02:15:11;;;;;;;19.32;16.77;;;;;;;1.61;81.75;99741.48;1746225;79;21032;-66
2022/12/24 02:18:03;;;;;;;21.05;17.42;;;;;;;1.64;81.80;99752.59;1749835;80;21446;-66
2022/12/24 02:20:58;;;;;;;20.10;17.95;;;;;;;1.67;81.87;99749.81;1745065;80;21835;-66
2022/12/24 02:23:58;;;;;;;19.07;15.95;;;;;;;1.72;81.86;99752.16;1741603;80;20961;-67
2022/12/24 02:27:11;;;;;;;18.62;16.05;;;;;;;1.76;81.82;99758.07;1753662;80;21052;-66
2022/12/24 02:30:11;;;;;;;20.93;17.70;;;;;;;1.76;81.76;99765.88;1726151;82;21084;-64
2022/12/24 02:33:16;;;;;;;19.98;17.65;;;;;;;1.77;81.74;99781.41;1714172;83;21087;-66
2022/12/24 02:36:10;;;;;;;20.62;17.57;;;;;;;1.79;81.75;99767.01;1759359;79;21860;-65
2022/12/24 02:38:45;;;;;;;18.70;15.65;;;;;;;1.80;81.66;99776.50;1749968;80;21032;-66
2022/12/24 02:42:04;;;;;;;21.05;17.40;;;;;;;1.79;81.61;99778.73;1741175;80;21529;-67
2022/12/24 02:43:56;;;;;;;20.55;17.62;;;;;;;1.79;81.60;99776.12;1744078;80;20985;-67
2022/12/24 02:46:26;;;;;;;20.75;17.32;;;;;;;1.79;81.56;99777.42;1752507;80;21580;-66
2022/12/24 02:48:53;;;;;;;19.70;17.32;;;;;;;1.81;81.56;99780.78;1764026;80;21507;-66
2022/12/24 02:51:23;;;;;;;22.00;18.10;;;;;;;1.82;81.52;99783.77;1736520;80;21471;-65
2022/12/24 02:53:50;;;;;;;20.72;17.60;;;;;;;1.83;81.50;99786.28;1741414;80;21040;-66
2022/12/24 02:56:51;;;;;;;21.35;17.82;;;;;;;1.84;81.44;99774.13;1744074;80;20953;-66
2022/12/24 02:59:52;;;;;;;20.15;16.42;;;;;;;1.85;81.43;99778.41;1731395;80;21374;-67
2022/12/24 03:02:45;;;;;;;21.40;17.75;;;;;;;1.85;81.39;99777.95;1749062;80;21860;-67
2022/12/24 03:05:48;;;;;;;20.60;15.50;;;;;;;1.83;81.35;99783.67;1744267;80;21534;-68
2022/12/24 03:09:00;;;;;;;19.85;16.73;;;;;;;1.84;81.31;99779.34;1739378;80;21311;-70
2022/12/24 03:11:26;;;;;;;19.10;16.50;;;;;;;1.82;81.34;99774.65;1706518;82;20984;-70
2022/12/24 03:13:53;;;;;;;20.25;17.23;;;;;;;1.82;81.39;99773.34;1750106;81;21420;-70
2022/12/24 03:16:25;;;;;;;20.23;16.57;;;;;;;1.83;81.43;99773.27;1698137;82;21888;-69
2022/12/24 03:18:53;;;;;;;19.80;17.20;;;;;;;1.86;81.47;99772.28;1755765;80;21407;-69
2022/12/24 03:21:34;;;;;;;19.80;17.30;;;;;;;1.88;81.49;99775.64;1753021;80;21099;-69
2022/12/24 03:24:01;;;;;;;22.90;17.80;;;;;;;1.92;81.53;99778.44;1739379;81;21127;-69
2022/12/24 03:26:29;;;;;;;20.55;18.00;;;;;;;1.94;81.54;99770.11;1668060;83;21054;-70
2022/12/24 03:28:55;;;;;;;18.67;16.65;;;;;;;1.97;81.54;99771.24;1700027;83;21946;-70
2022/12/24 03:31:22;;;;;;;20.05;16.87;;;;;;;1.99;81.54;99772.83;1735892;80;21043;-70
2022/12/24 03:33:49;;;;;;;21.93;18.70;;;;;;;2.01;81.52;99766.23;1738044;81;20973;-69
2022/12/24 03:36:15;;;;;;;19.98;17.82;;;;;;;2.03;81.51;99776.12;1745764;80;21049;-69
2022/12/24 03:38:42;;;;;;;21.23;17.67;;;;;;;2.02;81.50;99774.42;1748951;80;21076;-70
2022/12/24 03:41:08;;;;;;;18.95;16.82;;;;;;;2.05;81.49;99778.19;1748166;80;21810;-70
2022/12/24 03:43:35;;;;;;;18.82;16.82;;;;;;;2.06;81.42;99782.94;1753473;80;21077;-69
2022/12/24 03:46:06;;;;;;;19.15;16.35;;;;;;;2.07;81.42;99782.00;1744709;80;21012;-69
2022/12/24 03:48:34;;;;;;;19.32;17.23;;;;;;;2.08;81.35;99774.56;1708774;82;20963;-70
2022/12/24 03:51:02;;;;;;;19.02;16.05;;;;;;;2.06;81.35;99768.61;1708264;82;21089;-70
2022/12/24 03:53:30;;;;;;;19.32;16.45;;;;;;;2.06;81.32;99776.42;1677140;84;22035;-70
2022/12/24 03:55:57;;;;;;;18.73;16.32;;;;;;;2.06;81.34;99773.81;1728924;80;20932;-71
2022/12/24 03:58:26;;;;;;;20.50;17.25;;;;;;;2.07;81.33;99770.28;1762485;80;22209;-70
2022/12/24 04:00:54;;;;;;;19.27;17.17;;;;;;;2.06;81.28;99769.91;1767497;81;21048;-70
2022/12/24 04:03:21;;;;;;;19.32;16.55;;;;;;;2.06;81.27;99756.88;1752373;80;21035;-69
2022/12/24 04:05:48;;;;;;;19.90;16.45;;;;;;;2.07;81.26;99765.91;1757975;81;21952;-70
2022/12/24 04:08:15;;;;;;;17.87;15.98;;;;;;;2.08;81.25;99758.47;1700196;81;20963;-70
2022/12/24 04:10:41;;;;;;;19.32;15.83;;;;;;;2.08;81.19;99757.17;1761685;80;21000;-70
2022/12/24 04:13:08;;;;;;;17.70;14.90;;;;;;;2.10;81.16;99763.59;1758754;80;20963;-69
2022/12/24 04:15:35;;;;;;;18.82;16.82;;;;;;;2.09;81.12;99761.91;1751347;81;21137;-71
2022/12/24 04:18:01;;;;;;;18.25;15.72;;;;;;;2.08;81.10;99752.42;1756436;81;21893;-71
2022/12/24 04:20:28;;;;;;;19.62;16.82;;;;;;;2.07;81.05;99747.68;1756716;80;20975;-70
2022/12/24 04:22:55;;;;;;;18.07;16.17;;;;;;;2.06;81.01;99748.61;1758714;81;20976;-70
2022/12/24 04:25:25;;;;;;;16.75;14.87;;;;;;;2.07;81.04;99750.28;1794425;78;21062;-69
2022/12/24 04:27:56;;;;;;;19.23;16.12;;;;;;;2.08;81.00;99744.61;1797028;78;21002;-68
2022/12/24 04:30:25;;;;;;;17.85;15.95;;;;;;;2.09;80.98;99752.80;1807573;77;21905;-68
2022/12/24 04:32:52;;;;;;;19.55;16.50;;;;;;;2.09;80.92;99751.50;1792266;78;21437;-70
2022/12/24 04:35:19;;;;;;;19.55;16.60;;;;;;;2.10;80.88;99755.78;1796921;78;21371;-70
2022/12/24 04:37:46;;;;;;;18.48;16.12;;;;;;;2.08;80.84;99754.56;1800524;78;21002;-70
2022/12/24 04:40:13;;;;;;;18.25;16.35;;;;;;;2.08;80.81;99748.05;1804004;78;21039;-70
2022/12/24 04:42:40;;;;;;;17.12;15.32;;;;;;;2.07;80.79;99752.89;1802707;78;22802;-70
2022/12/24 04:45:08;;;;;;;19.02;15.83;;;;;;;2.06;80.73;99747.77;1815162;78;21757;-70
2022/12/24 04:47:36;;;;;;;17.77;15.58;;;;;;;2.04;80.72;99750.46;1805032;78;21000;-71
2022/12/24 04:50:03;;;;;;;18.05;14.90;;;;;;;2.04;80.68;99745.71;1793408;78;21378;-70
2022/12/24 04:52:30;;;;;;;17.35;15.20;;;;;;;2.02;80.67;99758.80;1806306;78;21425;-70
2022/12/24 04:54:56;;;;;;;17.00;15.10;;;;;;;2.02;80.66;99761.40;1821677;78;22529;-70
2022/12/24 04:57:23;;;;;;;17.55;15.63;;;;;;;2.00;80.64;99751.53;1802528;78;21532;-70
2022/12/24 04:59:49;;;;;;;18.20;16.30;;;;;;;1.99;80.64;99748.55;1795759;78;21563;-70
2022/12/24 05:02:16;;;;;;;17.20;15.40;;;;;;;1.98;80.68;99748.17;1801931;78;21255;-70
2022/12/24 05:04:42;;;;;;;17.55;15.65;;;;;;;1.97;80.69;99750.41;1808326;78;21481;-69
2022/12/24 05:07:09;;;;;;;16.90;15.10;;;;;;;1.96;80.70;99749.56;1813077;78;21933;-69
2022/12/24 05:09:35;;;;;;;15.50;13.90;;;;;;;1.96;80.75;99750.03;1801042;78;20948;-69
2022/12/24 05:12:02;;;;;;;16.60;14.90;;;;;;;1.96;80.80;99756.54;1802777;78;20953;-69
2022/12/24 05:14:29;;;;;;;17.12;15.32;;;;;;;1.95;80.82;99760.07;1815505;78;21011;-70
2022/12/24 05:16:55;;;;;;;18.62;15.70;;;;;;;1.96;80.87;99768.27;1807470;78;20932;-69
2022/12/24 05:19:22;;;;;;;16.07;14.38;;;;;;;1.96;80.90;99761.75;1806295;78;21768;-70
2022/12/24 05:26:20;;;;;;;17.00;14.83;;;;;;;1.94;80.92;99757.93;1808862;77;20931;-70
2022/12/24 05:27:01;;;;;;;15.53;13.85;;;;;;;1.93;80.96;99760.59;1807601;78;21358;-70
2022/12/24 05:29:28;;;;;;;15.28;13.70;;;;;;;1.93;80.95;99761.89;1812887;78;21308;-70
2022/12/24 05:31:56;;;;;;;15.95;13.83;;;;;;;1.92;80.94;99758.91;1796731;78;22500;-70
2022/12/24 05:34:22;;;;;;;14.78;12.58;;;;;;;1.89;80.95;99761.69;1790697;78;20865;-70
2022/12/24 05:36:49;;;;;;;14.90;13.35;;;;;;;1.86;81.00;99754.89;1811666;78;20956;-70
2022/12/24 05:39:16;;;;;;;14.95;12.88;;;;;;;1.84;81.00;99761.11;1800951;78;20956;-70
2022/12/24 05:41:44;;;;;;;14.23;12.73;;;;;;;1.82;81.05;99753.81;1808417;78;21047;-70
2022/12/24 05:44:10;;;;;;;14.18;12.73;;;;;;;1.80;81.09;99757.81;1792820;79;21908;-70
2022/12/24 05:46:37;;;;;;;14.58;12.98;;;;;;;1.78;81.11;99748.41;1782664;79;20949;-70
2022/12/24 05:49:03;;;;;;;13.40;12.00;;;;;;;1.76;81.16;99747.66;1783908;79;21089;-70
2022/12/24 05:51:30;;;;;;;14.33;12.25;;;;;;;1.73;81.16;99742.97;1800841;78;21070;-70
2022/12/24 05:53:57;;;;;;;12.30;11.00;;;;;;;1.73;81.26;99748.64;1807556;79;21071;-70
2022/12/24 05:56:23;;;;;;;11.25;10.03;;;;;;;1.72;81.29;99745.66;1798429;78;21896;-71
2022/12/24 05:58:51;;;;;;;11.65;10.45;;;;;;;1.71;81.31;99750.02;1796509;78;21496;-70
2022/12/24 06:01:19;;;;;;;11.70;10.38;;;;;;;1.71;81.32;99755.69;1803742;78;20967;-70
2022/12/24 06:03:45;;;;;;;11.78;10.58;;;;;;;1.70;81.33;99753.55;1817201;78;20975;-70
2022/12/24 06:06:22;;;;;;;11.70;10.43;;;;;;;1.70;81.31;99752.25;1820799;78;21082;-70
2022/12/24 06:08:49;;;;;;;10.55;9.45;;;;;;;1.69;81.31;99754.48;1799986;78;21404;-71
2022/12/24 06:11:18;;;;;;;10.70;9.60;;;;;;;1.68;81.27;99751.95;1816912;78;21502;-70
2022/12/24 06:13:45;;;;;;;10.75;9.48;;;;;;;1.67;81.25;99755.48;1789711;78;20986;-71
2022/12/24 06:16:14;;;;;;;10.10;9.00;;;;;;;1.67;81.26;99755.48;1805633;78;20999;-71
2022/12/24 06:18:40;;;;;;;10.00;8.95;;;;;;;1.65;81.22;99755.58;1797764;78;21062;-71
2022/12/24 06:21:07;;;;;;;9.88;8.88;;;;;;;1.65;81.21;99756.87;1803897;78;21763;-70
2022/12/24 06:23:37;;;;;;;11.57;9.25;;;;;;;1.64;81.19;99764.73;1801174;78;20952;-71
2022/12/24 06:26:05;;;;;;;9.10;8.15;;;;;;;1.64;81.20;99771.25;1801193;78;21050;-70
2022/12/24 06:28:34;;;;;;;9.65;8.68;;;;;;;1.64;81.19;99777.75;1801356;78;20992;-70
2022/12/24 06:31:01;;;;;;;9.65;8.65;;;;;;;1.62;81.16;99776.53;1799577;77;21133;-70
2022/12/24 06:33:28;;;;;;;9.00;8.10;;;;;;;1.59;81.15;99779.31;1799470;78;21922;-69
2022/12/24 06:35:55;;;;;;;9.13;8.20;;;;;;;1.59;81.15;99785.81;1796626;78;20968;-69
2022/12/24 06:38:22;;;;;;;8.50;7.60;;;;;;;1.60;81.21;99786.66;1798430;78;20967;-70
2022/12/24 06:40:52;;;;;;;8.28;7.47;;;;;;;1.60;81.20;99783.59;1801457;78;21036;-70
2022/12/24 06:43:18;;;;;;;7.95;7.15;;;;;;;1.61;81.25;99780.52;1796604;78;21429;-69
2022/12/24 06:45:47;;;;;;;8.10;7.17;;;;;;;1.63;81.25;99788.63;1756087;80;21390;-69
2022/12/24 06:48:16;;;;;;;7.87;6.85;;;;;;;1.63;81.28;99776.91;1744296;81;20980;-69
2022/12/24 06:50:43;;;;;;;7.95;6.72;;;;;;;1.65;81.30;99782.91;1749580;81;21102;-70
2022/12/24 06:53:10;;;;;;;6.97;6.30;;;;;;;1.66;81.31;99784.59;1763243;80;20940;-70
2022/12/24 06:55:37;;;;;;;7.35;6.65;;;;;;;1.68;81.34;99787.94;1750917;80;21381;-70
2022/12/24 06:58:04;;;;;;;7.53;6.67;;;;;;;1.69;81.40;99785.72;1745794;80;22578;-70
2022/12/24 07:00:33;;;;;;;8.03;6.90;;;;;;;1.72;81.46;99788.15;1766353;79;21004;-69
2022/12/24 07:03:00;;;;;;;7.40;6.70;;;;;;;1.74;81.47;99782.89;1740518;80;21111;-70
2022/12/24 07:05:28;;;;;;;7.72;6.95;;;;;;;1.75;81.50;99781.13;1737782;80;21382;-70
2022/12/24 07:07:58;;;;;;;7.58;6.87;;;;;;;1.75;81.51;99775.45;1727147;80;21407;-70
2022/12/24 07:10:25;;;;;;;8.13;7.33;;;;;;;1.79;81.55;99776.12;1737544;81;21903;-70
2022/12/24 07:12:52;;;;;;;8.35;7.50;;;;;;;1.80;81.57;99778.64;1749024;80;21142;-69
2022/12/24 07:15:19;;;;;;;8.68;7.80;;;;;;;1.82;81.57;99775.48;1737830;80;21078;-69
2022/12/24 07:17:45;;;;;;;8.65;7.75;;;;;;;1.83;81.55;99775.86;1740654;80;21046;-71
2022/12/24 07:20:13;;;;;;;9.38;8.10;;;;;;;1.85;81.59;99774.05;1741594;80;20996;-71
2022/12/24 07:22:41;;;;;;;10.48;7.85;;;;;;;1.89;81.62;99779.45;1742084;80;21347;-71
2022/12/24 07:25:09;;;;;;;9.50;8.50;;;;;;;1.92;81.58;99788.86;1736507;80;20936;-71
2022/12/24 07:27:37;;;;;;;9.65;8.50;;;;;;;1.92;81.51;99782.34;1741122;80;21015;-71
2022/12/24 07:30:05;;;;;;;10.15;8.40;;;;;;;1.91;81.49;99776.30;1750665;81;21032;-71
2022/12/24 07:32:32;;;;;;;9.20;8.23;;;;;;;1.91;81.49;99778.06;1749118;80;21103;-70
2022/12/24 07:34:58;;;;;;;9.70;8.50;;;;;;;1.93;81.49;99773.61;1744154;81;21933;-70
2022/12/24 07:37:25;;;;;;;9.68;8.68;;;;;;;1.95;81.47;99780.91;1733820;80;20945;-71
2022/12/24 07:39:52;;;;;;;11.18;9.00;;;;;;;1.98;81.51;99784.64;1744752;80;21025;-71
2022/12/24 07:42:18;;;;;;;10.88;9.03;;;;;;;1.99;81.48;99792.83;1732226;81;21061;-70
2022/12/24 07:44:45;;;;;;;10.53;9.15;;;;;;;2.03;81.44;99794.80;1753332;80;20947;-69
2022/12/24 07:47:11;;;;;;;10.05;9.05;;;;;;;2.04;81.38;99799.95;1760956;80;21977;-70
2022/12/24 07:49:39;;;;;;;9.80;8.80;;;;;;;2.03;81.34;99805.22;1756331;80;20965;-70
2022/12/24 07:52:06;;;;;;;9.98;8.90;;;;;;;2.03;81.31;99810.42;1778648;80;20971;-70
2022/12/24 07:54:32;;;;;;;9.18;8.28;;;;;;;2.04;81.32;99809.53;1750663;81;21063;-70
2022/12/24 07:56:59;;;;;;;9.93;8.93;;;;;;;2.02;81.30;99804.38;1748935;81;21041;-70
2022/12/24 07:59:25;;;;;;;10.03;8.90;;;;;;;2.01;81.32;99806.60;1747298;81;21953;-70
2022/12/24 08:01:52;;;;;;;9.70;8.70;;;;;;;2.01;81.36;99799.62;1761352;80;21121;-70
2022/12/24 08:04:18;;;;;;;10.68;9.30;;;;;;;2.03;81.34;99800.00;1759105;80;21083;-69
2022/12/24 08:06:45;;;;;;;10.28;8.85;;;;;;;2.02;81.35;99808.28;1771940;80;20948;-69
2022/12/24 08:09:13;;;;;;;11.40;9.18;;;;;;;2.03;81.37;99807.82;1740023;81;21128;-72
2022/12/24 08:11:39;;;;;;;9.75;8.68;;;;;;;2.04;81.41;99810.37;1730736;81;21899;-70
2022/12/24 08:14:06;;;;;;;10.40;9.38;;;;;;;2.06;81.43;99803.31;1730692;82;21067;-69
2022/12/24 08:16:33;;;;;;;11.43;9.63;;;;;;;2.06;81.44;99800.70;1759001;80;20991;-68
2022/12/24 08:19:01;;;;;;;12.80;10.65;;;;;;;2.06;81.49;99797.26;1731466;81;21058;-70
2022/12/24 08:21:28;;;;;;;13.58;11.38;;;;;;;2.07;81.55;99794.56;1732138;81;20963;-72
2022/12/24 08:23:55;;;;;;;14.75;11.85;;;;;;;2.10;81.59;99789.64;1760912;80;21887;-69
2022/12/24 08:26:21;;;;;;;13.80;11.55;;;;;;;2.12;81.62;99794.30;1719758;82;21097;-68
2022/12/24 08:28:48;;;;;;;14.13;12.10;;;;;;;2.13;81.70;99791.64;1735029;82;21004;-68
2022/12/24 08:31:14;;;;;;;12.63;11.28;;;;;;;2.15;81.67;99796.77;1741408;80;21004;-70
2022/12/24 08:33:42;;;;;;;13.90;12.18;;;;;;;2.15;81.72;99789.79;1738828;81;21489;-68
2022/12/24 08:36:11;;;;;;;13.40;11.38;;;;;;;2.18;81.74;99795.29;1745020;80;21985;-67
2022/12/24 08:38:37;;;;;;;12.70;10.68;;;;;;;2.16;81.70;99792.77;1733801;81;21084;-69
2022/12/24 08:41:04;;;;;;;13.00;11.25;;;;;;;2.14;81.69;99795.92;1754530;80;21039;-67
2022/12/24 08:43:30;;;;;;;12.28;10.98;;;;;;;2.13;81.67;99784.29;1741790;81;21066;-67
2022/12/24 08:46:03;;;;;;;14.75;11.88;;;;;;;2.13;81.75;99779.92;1730897;81;21003;-66
2022/12/24 08:48:32;;;;;;;12.10;10.30;;;;;;;2.15;81.78;99773.32;1734073;81;21877;-68
2022/12/24 08:50:58;;;;;;;11.63;10.35;;;;;;;2.17;81.78;99772.77;1728752;81;21034;-67
2022/12/24 08:53:26;;;;;;;14.83;12.28;;;;;;;2.18;81.81;99770.07;1751585;80;21097;-68
2022/12/24 08:56:02;;;;;;;14.83;11.38;;;;;;;2.17;81.79;99766.25;1754180;80;20988;-66
2022/12/24 08:58:29;;;;;;;13.50;10.50;;;;;;;2.18;81.81;99766.63;1731759;81;21466;-66
2022/12/24 09:00:55;;;;;;;13.98;11.28;;;;;;;2.18;81.83;99775.28;1756725;80;21835;-68
2022/12/24 09:03:22;;;;;;;13.72;10.98;;;;;;;2.19;81.86;99769.14;1728100;82;21125;-67
2022/12/24 09:05:48;;;;;;;11.78;10.05;;;;;;;2.21;81.90;99772.97;1752519;80;21491;-68
2022/12/24 09:08:15;;;;;;;12.37;10.32;;;;;;;2.22;81.90;99775.52;1749352;80;21486;-67
2022/12/24 09:10:41;;;;;;;12.35;10.48;;;;;;;2.22;81.91;99772.91;1734277;81;21491;-68
2022/12/24 09:13:08;;;;;;;11.18;9.68;;;;;;;2.25;81.95;99781.02;1731639;82;21896;-67
2022/12/24 09:15:35;;;;;;;12.60;10.55;;;;;;;2.23;81.98;99771.98;1733681;82;21565;-69
2022/12/24 09:18:02;;;;;;;13.78;11.12;;;;;;;2.24;82.01;99768.91;1747385;80;21064;-70
2022/12/24 09:20:29;;;;;;;13.55;10.38;;;;;;;2.27;82.07;99776.55;1734391;81;21115;-75
2022/12/24 09:22:55;;;;;;;13.62;10.65;;;;;;;2.29;82.11;99770.78;1744818;80;21062;-72
2022/12/24 09:25:21;;;;;;;11.48;9.93;;;;;;;2.31;82.09;99771.53;1734655;81;22156;-72
2022/12/24 09:27:48;;;;;;;11.20;9.65;;;;;;;2.35;82.12;99773.06;1758238;80;20996;-70
2022/12/24 09:30:15;;;;;;;9.65;8.65;;;;;;;2.35;82.09;99766.55;1735974;81;21021;-69
2022/12/24 09:32:41;;;;;;;13.03;10.23;;;;;;;2.36;82.07;99766.92;1734875;81;21525;-70
2022/12/24 09:35:09;;;;;;;12.85;9.88;;;;;;;2.34;82.05;99767.94;1732712;81;22198;-73
2022/12/24 09:37:36;;;;;;;11.73;9.48;;;;;;;2.35;82.12;99761.34;1741139;80;21896;-73
2022/12/24 09:40:03;;;;;;;12.75;9.75;;;;;;;2.37;82.10;99769.06;1709200;81;21018;-68
2022/12/24 09:42:53;;;;;;;11.60;9.63;;;;;;;2.35;82.07;99766.55;1756216;81;21453;-70
2022/12/24 09:45:28;;;;;;;11.35;8.95;;;;;;;2.35;82.12;99761.34;1742569;80;21035;-73
2022/12/24 09:48:01;;;;;;;11.65;9.73;;;;;;;2.38;82.21;99766.38;1729005;80;21025;-76
2022/12/24 09:50:41;;;;;;;13.38;11.12;;;;;;;2.40;82.24;99764.98;1738493;80;22020;-73
2022/12/24 09:53:32;;;;;;;11.68;9.90;;;;;;;2.45;82.29;99774.70;1747591;82;20953;-72
2022/12/24 09:56:00;;;;;;;12.60;10.82;;;;;;;2.46;82.25;99775.08;1735726;82;20962;-72
2022/12/24 09:58:38;;;;;;;10.15;8.60;;;;;;;2.47;82.27;99770.23;1739035;82;21026;-75
2022/12/24 10:01:05;;;;;;;11.83;10.28;;;;;;;2.51;82.35;99771.73;1736249;82;21019;-74
2022/12/24 10:03:32;;;;;;;10.43;8.73;;;;;;;2.53;82.27;99752.96;1713645;82;22620;-74
2022/12/24 10:06:23;;;;;;;9.95;8.60;;;;;;;2.54;82.36;99758.55;1740608;81;21036;-74
2022/12/24 10:08:59;;;;;;;12.18;9.08;;;;;;;2.59;82.43;99755.20;1740967;81;21030;-72
2022/12/24 10:11:57;;;;;;;10.00;8.55;;;;;;;2.62;82.48;99755.05;1731399;82;20986;-71
2022/12/24 10:14:38;;;;;;;10.55;8.53;;;;;;;2.68;82.60;99751.23;1736101;81;21567;-70
2022/12/24 10:17:48;;;;;;;10.80;8.88;;;;;;;2.76;82.61;99749.04;1747309;81;21852;-71
2022/12/24 10:20:55;;;;;;;10.35;9.18;;;;;;;2.79;82.63;99748.39;1748142;81;21487;-71
2022/12/24 10:23:39;;;;;;;11.05;9.08;;;;;;;2.91;82.71;99748.17;1741924;81;21002;-71
2022/12/24 10:26:24;;;;;;;;;;;;;;;2.96;82.56;99749.20;1746393;81;21439;-70
2022/12/24 10:29:14;;;;;;;11.03;8.80;;;;;;;3.01;82.52;99746.70;1743694;81;20261;-70
2022/12/24 10:32:02;;;;;;;9.63;8.55;;;;;;;3.04;82.39;99744.38;1743143;82;21880;-70
2022/12/24 10:34:32;;;;;;;9.98;8.25;;;;;;;3.07;82.21;99740.27;1743003;81;21012;-71
2022/12/24 10:36:59;;;;;;;9.10;8.20;;;;;;;3.08;82.11;99740.64;1743217;81;20973;-71
2022/12/24 10:39:26;;;;;;;9.33;8.33;;;;;;;3.09;81.95;99743.66;1735965;81;21034;-70
2022/12/24 10:41:56;;;;;;;9.45;8.53;;;;;;;3.08;81.75;99738.03;1744957;82;21082;-72
2022/12/24 10:44:26;;;;;;;9.60;8.60;;;;;;;3.08;81.70;99734.96;1739973;81;22601;-72
2022/12/24 10:46:54;;;;;;;9.65;8.65;;;;;;;3.11;81.60;99740.48;1746540;81;21013;-72
2022/12/24 10:49:44;;;;;;;10.35;8.40;;;;;;;3.14;81.58;99741.60;1745478;81;21110;-71
2022/12/24 10:52:17;;;;;;;9.10;8.18;;;;;;;3.19;81.48;99733.05;1743756;81;21049;-71
2022/12/24 10:55:12;;;;;;;11.22;8.08;;;;;;;3.24;81.41;99737.52;1731627;80;21024;-70
2022/12/24 10:57:40;;;;;;;9.18;8.23;;;;;;;3.28;81.27;99741.64;1743356;80;21870;-70
2022/12/24 11:00:20;;;;;;;8.83;7.83;;;;;;;3.34;81.12;99746.94;1763672;80;21114;-69
2022/12/24 11:02:47;;;;;;;7.90;7.10;;;;;;;3.35;80.90;99744.23;1767794;79;20972;-70
2022/12/24 11:05:31;;;;;;;8.00;7.20;;;;;;;3.36;80.68;99752.44;1769604;81;20995;-69
2022/12/24 11:08:22;;;;;;;7.37;6.58;;;;;;;3.37;80.64;99753.28;1760003;79;20972;-69
2022/12/24 11:10:58;;;;;;;7.00;6.30;;;;;;;3.40;80.50;99760.95;1748368;82;22609;-71
2022/12/24 11:13:38;;;;;;;7.50;6.45;;;;;;;3.40;80.34;99753.95;1720544;82;21009;-70
2022/12/24 11:16:31;;;;;;;8.10;7.08;;;;;;;3.43;80.21;99756.84;1718718;83;20956;-71
2022/12/24 11:19:00;;;;;;;7.85;6.78;;;;;;;3.43;80.11;99758.14;1718631;82;21063;-69
2022/12/24 11:21:33;;;;;;;7.40;6.60;;;;;;;3.45;79.97;99756.27;1736199;81;20929;-70
2022/12/24 11:24:29;;;;;;;8.08;6.50;;;;;;;3.48;79.94;99756.11;1766997;81;21951;-69
2022/12/24 11:27:18;;;;;;;7.83;7.03;;;;;;;3.52;79.88;99747.15;1766918;80;20856;-69
2022/12/24 11:29:44;;;;;;;7.53;6.72;;;;;;;3.55;79.68;99754.79;1736224;82;20996;-69
2022/12/24 11:32:20;;;;;;;8.88;7.42;;;;;;;3.57;79.60;99758.61;1718946;82;21043;-69
2022/12/24 11:34:47;;;;;;;7.70;6.95;;;;;;;3.59;79.50;99761.99;1719946;82;21043;-69
2022/12/24 11:37:22;;;;;;;8.90;7.92;;;;;;;3.62;79.42;99754.80;1747703;82;21835;-69
2022/12/24 11:39:52;;;;;;;8.83;7.90;;;;;;;3.64;79.26;99751.63;1714365;82;21399;-70
2022/12/24 11:42:32;;;;;;;9.93;8.55;;;;;;;3.65;79.08;99756.38;1718508;83;21491;-70
2022/12/24 11:45:01;;;;;;;10.63;9.08;;;;;;;3.63;78.92;99753.03;1738071;82;20961;-70
2022/12/24 11:47:37;;;;;;;10.13;8.43;;;;;;;3.60;78.85;99750.14;1723685;82;21003;-70
2022/12/24 11:50:38;;;;;;;9.40;7.78;;;;;;;3.62;78.85;99748.27;1748323;81;22567;-70
2022/12/24 11:53:13;;;;;;;8.65;7.37;;;;;;;3.65;78.80;99753.77;1747499;81;21000;-70
2022/12/24 11:55:48;;;;;;;8.30;7.50;;;;;;;3.65;78.70;99755.07;1719959;82;21416;-69